Jason Carrasco

Olheiro-Chefe - KV Oostende
20 Fev 2028
Domingo
Processo

Personalidade

Adaptabilidade (1) Ambição (11) Controvérsia (3) Lealdade (14) Pressão (7) Profissionalismo (12) Espírito Esportivo (20) Temperamento (13)

Perfil

Estilo de Treinamento Democrático
Licença Continental Pro
Determinação 5
Gestão de Pessoas 9
Motivação 7
Disciplina 7
Satisfação no Trabalho
100%
Fadiga
0%
Função Olheiro-Chefe
Salário 49.2K p/s
Contrato 14.03.2028

Desempenho

Comportamento Bom
Eficácia do Treinamento
34%
Desenvolvimento do Jogador
25%
Prevenção de Lesões
55%
Implementação Tática
25%

Eventos Recentes

Negociação de contrato iniciada agora
Participou de uma reunião de recrutamento agora
Recomendou um alvo de transferência agora
Recomendou um alvo de transferência agora
Negociação de contrato iniciada agora
Negociação de contrato iniciada agora
Negociação de contrato iniciada agora
Negociação de contrato iniciada 7d atrás

Monitorando agora

175
Jogador Clube Status Habilidade Confiança Observado Última observação Último voto
Jayden Danns Wigan Athletic Ativo 134 / 148 40% 1 05.01.2028 -
Noam Obougou Jacquet Le Havre AC Perdido 115 / 123 40% 1 05.01.2028 -
Mikhail Alexandrov Dinamo Brest Ativo 95 / 89 40% 1 05.01.2028 -
Mao Hosoya Everton Ativo 134 / 135 67% 1 01.01.2028 Aprovar
Aurélien Scheidler Tondela Ativo 119 / 119 70% 1 01.01.2028 Aprovar
Max Fenger IFK Goteborg Ativo 123 / 119 40% 1 31.12.2027 -
Nahuel Soria Oriental Ativo 97 / 117 40% 1 31.12.2027 -
Andrija Bulatović RC Lens Ativo 130 / 140 40% 3 29.11.2027 -
Ryan McAidoo Gillingham Ativo 121 / 136 40% 1 29.11.2027 -
Jorthy Mokio ADO Den Haag Ativo 127 / 144 40% 1 29.11.2027 -
Maren Kefas Plateau United Ativo 101 / 87 40% 3 26.11.2027 -
Soriba Diaoune AC Ajaccio Ativo 123 / 123 40% 2 26.11.2027 -
Avery Appiah Ajax Ativo 123 / 125 40% 1 25.11.2027 -
Clement Bischoff Red Bull Salzburg Ativo 128 / 130 40% 1 25.11.2027 -
Bryan Caicedo Leones Ativo 108 / 125 40% 2 24.11.2027 -
Mikkel Hope Haugesund Ativo 110 / 121 40% 2 24.11.2027 -
Cristian Florez Cortulua Ativo 88 / 116 40% 3 24.11.2027 -
Chimobi Igwilo Rangers International Ativo 91 / 102 40% 2 23.11.2027 -
Hervin Goyes Deportivo Pasto Ativo 118 / 127 40% 1 23.11.2027 -
Nicolas Verkooijen PSV Ativo 112 / 126 40% 1 23.11.2027 -
Senny Mayulu Paris Saint-Germain Ativo 155 / 161 40% 3 22.11.2027 Observar
Luis Otávio Colorado Rapids Ativo 101 / 122 40% 1 22.11.2027 -
Oscar Otero Atletico Venezuela Ativo 92 / 118 40% 1 22.11.2027 -
Lucas Høgsberg RC Strasbourg Ativo 137 / 145 40% 2 21.11.2027 -
David Valencia Alianza Petrolera Ativo 116 / 139 40% 1 21.11.2027 -
Estêvão Millwall Ativo 140 / 156 40% 2 20.11.2027 -
Diogo Guzmán Montevideo City Torque Ativo 118 / 127 40% 1 20.11.2027 -
Mateo Peralta Danubio Ativo 100 / 109 40% 1 19.11.2027 -
Jan Bürger Gillingham Ativo 117 / 122 40% 1 18.11.2027 -
Gessime Yassine Olympique Lyonnais Ativo 129 / 128 40% 2 02.11.2027 -
Joel Ezra Enyimba Ativo 93 / 104 40% 2 01.11.2027 -
Louis Leroux FC Nantes Ativo 138 / 137 40% 1 01.11.2027 -
Musa Malik Ikorodu City Ativo 85 / 90 40% 1 20.10.2027 -
Hassan Beja AFC Leopards Ativo 97 / 104 40% 1 20.10.2027 -
Santino Carrizo Chacarita Juniors Ativo 90 / 88 40% 2 19.10.2027 -
Emiliano Zambrano Gimnasia y Esgrima Ativo 97 / 98 40% 1 19.10.2027 -
Dylan Cabral Arsenal Ativo 104 / 96 40% 1 18.10.2027 -
Esteban de Lima Tacuarembo Ativo 101 / 117 40% 1 15.10.2027 -
Mateo Silvetti Los Angeles Football Club Ativo 115 / 129 40% 1 15.10.2027 -
Jofre Torrents Ajax Ativo 132 / 131 40% 3 14.10.2027 -
Tiago Gordillo San Miguel Ativo 92 / 110 40% 1 14.10.2027 -
Erawan Garnier Nimes Ativo 106 / 116 40% 1 10.10.2027 -
Tiziano Cabrera Central Norte Ativo 78 / 99 40% 1 06.10.2027 -
Luis Vidal Deportivo Pereira Ativo 83 / 94 40% 1 06.10.2027 -
Abdoul Ouattara Burton Albion Ativo 125 / 131 40% 1 05.10.2027 -
Wisdom Udom Bendel Insurance Ativo 83 / 88 40% 1 05.10.2027 -
Giovanni Baroni Talleres Ativo 114 / 129 40% 1 04.10.2027 -
Jhon Renteria Sarmiento Ativo 110 / 104 40% 1 04.10.2027 -
Dion Beljo Standard Liege Perdido 131 / 132 66% 1 01.06.2027 Aprovar
Pablo Solari Galatasaray Perdido 128 / 128 68% 1 01.06.2027 Aprovar
Kwadwo Baah Watford Ativo 133 / 127 40% 7 30.05.2027 -
Max Bird Birmingham Ativo 137 / 142 40% 1 30.05.2027 -
Stanley Mills Oxford United Ativo 124 / 129 40% 2 27.05.2027 -
Tshepang Moremi Orlando Pirates Ativo 130 / 99 40% 3 26.05.2027 -
Calum Agius Crewe Alexandra Ativo 93 / 106 40% 1 26.05.2027 -
Kasey McAteer Ipswich Town Ativo 128 / 141 40% 4 24.05.2027 -
Xavier Amaechi Plymouth Argyle Ativo 103 / 117 40% 2 23.05.2027 -
Jack McGlynn Stoke City Ativo 126 / 133 40% 3 23.05.2027 -
Shea Lacey Wolverhampton Ativo 123 / 127 40% 2 23.05.2027 -
Zane Albarus Cambridge United Ativo 95 / 101 40% 1 23.05.2027 -
Isaiah Jones Luton Town Ativo 119 / 118 40% 4 21.05.2027 -
Morgan Whittaker Middlesbrough Ativo 125 / 129 40% 2 20.05.2027 -
Tom Fellows Southampton Ativo 135 / 125 40% 4 19.05.2027 -
Kamarni Ryan Burton Albion Ativo 92 / 90 40% 1 19.05.2027 -
Leo Castledine Middlesbrough Ativo 125 / 135 40% 1 19.05.2027 -
Zak Swanson Bradford City Ativo 120 / 124 40% 1 16.05.2027 -
Zeidane Inoussa Swansea City Ativo 124 / 134 40% 3 13.05.2027 -
Tyreece Campbell Charlton Athletic Ativo 118 / 121 40% 2 12.05.2027 -
Richard Koné Queens Park Rangers Ativo 125 / 122 40% 2 10.05.2027 -
Isaac Price West Bromwich Albion Ativo 121 / 122 40% 2 08.05.2027 -
Tyler Goodrham Oxford United Ativo 118 / 114 40% 1 08.05.2027 -
Joe Gelhardt Hull City Ativo 136 / 121 40% 2 05.05.2027 -
Tadjidine Mmadi Olympique de Marseille Ativo 94 / 103 40% 1 05.05.2027 -
Matías Gómez Granada Ativo 108 / 113 40% 1 05.05.2027 -
Riley Owen Trento Ativo 109 / 106 40% 1 03.05.2027 -
Ali Ahmed Norwich City Ativo 116 / 119 40% 1 02.05.2027 -
Welington Southampton Ativo 131 / 129 40% 2 01.05.2027 -
Finn Azaz Southampton Ativo 137 / 119 40% 7 30.04.2027 -
Latrell Aken Groningen Ativo 111 / 121 40% 1 28.04.2027 -
Giorgi Chakvetadze Watford Ativo 120 / 127 40% 1 26.04.2027 -
David Ozoh Derby County Ativo 112 / 139 40% 1 23.04.2027 -
Mfundo Vilakazi Kaizer Chiefs Ativo 112 / 128 40% 1 23.04.2027 -
Jack Rudoni Coventry City Ativo 132 / 138 40% 2 21.04.2027 -
Ethan Williams Peterborough United Ativo 113 / 112 40% 1 21.04.2027 -
Oscar Schwartau Norwich City Ativo 114 / 117 40% 1 13.04.2027 -
Josh King Chelsea Ativo 142 / 149 40% 1 13.04.2027 -
Tyrese Campbell Sheffield United Ativo 129 / 114 40% 4 08.04.2027 -
Ollie Tanner Cardiff City Ativo 108 / 127 40% 1 06.04.2027 -
Giovanni Haag Cardiff City Ativo 130 / 127 40% 2 05.04.2027 -
Derensili Sanches Fernandes Huddersfield Town Ativo 130 / 120 40% 3 05.04.2027 -
Jason Knight Bristol City Ativo 127 / 124 40% 3 03.04.2027 -
Shea Charles Southampton Ativo 133 / 131 40% 1 30.03.2027 -
Mohamed Belloumi Hull City Ativo 135 / 144 40% 1 27.03.2027 -
Daniel Kyerewaa Reading Ativo 118 / 101 40% 2 26.03.2027 -
Ronald Swansea City Ativo 129 / 129 40% 1 24.03.2027 -
Williams Manyama SuperSport United Ativo 124 / 135 40% 1 20.03.2027 -
Thibaud Verlinden OH Leuven Ativo 131 / 116 40% 2 16.03.2027 -
Maksim Kireev KV Mechelen Ativo 110 / 125 40% 4 16.03.2027 -
Yvandro Borges Sanches Heracles Ativo 113 / 108 40% 2 15.03.2027 -
Ousmane Coulibaly Stade Malien Ativo 112 / 108 40% 1 11.03.2027 -
Carlos Vicente Birmingham Ativo 154 / 145 40% 6 09.03.2027 -
Abdelkahar Kadri KAA Gent Ativo 120 / 132 40% 2 05.03.2027 -
Sayfallah Ltaief Cracovia Ativo 130 / 105 40% 1 04.03.2027 -
Tristan Degreef Anderlecht Ativo 129 / 140 40% 3 03.03.2027 -
Mandla Erasmus SuperSport United Ativo 110 / 135 40% 3 28.02.2027 -
Nayel Mehssatou KV Kortrijk Ativo 115 / 104 40% 1 27.02.2027 -
Cian Ashford Cardiff City Ativo 125 / 126 40% 2 24.02.2027 -
Jeppe Erenbjerg Racing Genk Ativo 113 / 120 40% 3 15.02.2027 -
Myron van Brederode KV Mechelen Ativo 120 / 114 40% 2 15.02.2027 -
Petar Stanić Ludogorets Ativo 138 / 116 40% 1 14.02.2027 -
Chris Lokesa Waasland-Beveren Ativo 117 / 137 40% 3 08.02.2027 -
Amine Adli Bournemouth Ativo 151 / 133 40% 1 03.02.2027 -
Kevin Amaro Racing Genk Ativo 119 / 137 40% 1 02.02.2027 -
Jules Armand Kooh Dynamo Douala Ativo 110 / 108 40% 1 01.01.2027 -
Mees Rijks Bristol Rovers Ativo 104 / 124 40% 1 31.12.2026 -
Giacomo Raspadori Atalanta Ativo 158 / 142 40% 3 29.12.2026 -
Christian Krasnodar Ativo 147 / 151 40% 3 24.12.2026 -
Junior Onana Zamalek Ativo 122 / 128 40% 1 24.12.2026 -
Jacques Siwe Rubin Ativo 110 / 128 40% 1 24.12.2026 -
Mathias Jørgensen Blackburn Rovers Ativo 125 / 107 40% 1 24.12.2026 -
Lorent Tolaj Plymouth Argyle Ativo 120 / 109 40% 1 21.12.2026 -
Georginio Rutter Brighton Ativo 138 / 150 40% 2 15.12.2026 -
Ilias Sebaoui Sint-Truiden Ativo 125 / 118 40% 2 14.12.2026 -
David Kalokoh Ajax Ativo 109 / 110 40% 2 13.12.2026 -
Isa Sakamoto Westerlo Ativo 105 / 110 40% 3 13.12.2026 -
Bongani Mothiba SuperSport United Ativo 86 / 96 40% 1 12.12.2026 -
Aidomo Emakhu Oxford United Ativo 126 / 116 40% 1 11.12.2026 -
Daan Heymans Racing Genk Ativo 122 / 117 40% 2 10.12.2026 -
Adriano Bertaccini Anderlecht Ativo 117 / 123 40% 1 07.12.2026 -
Armando Broja Burnley Ativo 138 / 135 40% 1 06.12.2026 -
Ibrahim Cissoko Zwolle Ativo 120 / 129 40% 2 30.11.2026 -
Aimé Omgba KAA Gent Ativo 130 / 125 40% 2 30.11.2026 -
Ruben van Bommel Ferencvaros Ativo 121 / 114 40% 3 29.11.2026 -
Sorba Thomas Stoke City Ativo 139 / 134 40% 1 29.11.2026 -
Niklas Vesterlund Utrecht Ativo 118 / 126 40% 1 26.11.2026 -
Ilay Camara Anderlecht Ativo 124 / 138 40% 5 23.11.2026 -
Antoine Colassin Charleroi Ativo 110 / 124 40% 2 23.11.2026 -
Joaquín Gho Argentinos Juniors Ativo 130 / 123 40% 1 21.11.2026 -
Gonzalo Fulham Ativo 147 / 148 40% 1 20.11.2026 -
Noah Sadiki Sunderland Ativo 139 / 135 40% 2 18.11.2026 -
Florentino Luís Ipswich Town Ativo 138 / 140 40% 1 18.11.2026 -
Jadon Sancho Manchester United Ativo 142 / 155 40% 1 13.11.2026 -
Marcelo Allende Mamelodi Sundowns Ativo 116 / 135 40% 1 10.11.2026 -
Ammar Ramadan DAC Dunajska Streda Ativo 128 / 122 40% 1 09.11.2026 -
Mario Stroeykens Anderlecht Ativo 130 / 142 40% 2 08.11.2026 -
Yaimar Medina Racing Genk Ativo 119 / 137 40% 1 06.11.2026 -
Alan Lescano Argentinos Juniors Ativo 140 / 144 40% 1 05.11.2026 -
Freddie Potts Club Brugge Ativo 136 / 122 40% 1 04.11.2026 -
Kevin Fulham Ativo 150 / 146 40% 1 29.10.2026 -
Félix Lemaréchal Club Brugge Ativo 129 / 145 40% 2 27.10.2026 -
Mamadou Diakhon Club Brugge Ativo 111 / 120 40% 1 24.10.2026 -
Levi Smans Heerenveen Ativo 122 / 122 40% 1 23.10.2026 -
Taiga Hata Sint-Truiden Ativo 126 / 132 40% 1 21.10.2026 -
Bénie Traoré New York City Ativo 138 / 122 40% 2 20.10.2026 -
Thomas van den Belt Twente Ativo 119 / 127 40% 1 19.10.2026 -
Facundo Mura Inter Miami CF Ativo 133 / 134 40% 1 16.10.2026 -
Wessam Abou Ali Columbus Crew Ativo 118 / 116 40% 2 12.10.2026 -
Jesus Ferreira Seattle Sounders Ativo 115 / 129 40% 3 10.10.2026 -
Robert-Jan Vanwesemael Sint-Truiden Ativo 126 / 129 40% 1 09.10.2026 -
Jakob Napoleon Romsaas Charleroi Ativo 118 / 126 40% 1 09.10.2026 -
Juan Rocca Gimnasia y Tiro Ativo 112 / 119 40% 1 09.10.2026 -
Indiana Vassilev Philadelphia Union Ativo 104 / 112 40% 1 07.10.2026 -
Etiosa Ighodaro Kaizer Chiefs Ativo 116 / 93 40% 1 30.09.2026 -
David Miculescu FCSB Ativo 118 / 125 40% 1 28.09.2026 -
Tomás González Piast Ativo 103 / 131 40% 1 24.09.2026 -
Maurice Malone Minnesota United FC Ativo 107 / 131 40% 1 24.09.2026 -
Adama Traoré Bidco United Ativo 78 / 103 40% 1 23.09.2026 -
Maximiliano Rodríguez Huachipato Ativo 116 / 113 40% 1 23.09.2026 -
Dejan Joveljić Seattle Sounders Ativo 117 / 140 40% 2 22.09.2026 -
Ayoub Jabbari FC Cincinnati Ativo 115 / 99 40% 1 22.09.2026 -
Mustapha Sangaré Levski Ativo 109 / 109 40% 1 20.09.2026 -
Kévin Denkey FC Cincinnati Ativo 124 / 146 40% 2 19.09.2026 -
Karim Konaté Red Bull Salzburg Ativo 142 / 127 40% 1 14.09.2026 -
Marco Pašalić Orlando City Ativo 123 / 144 40% 1 12.09.2026 -
Jorge Ruvalcaba New York Red Bulls Ativo 114 / 137 40% 1 08.09.2026 -